Time,TemperatureF,DewpointF,PressureIn,WindDirection,WindDirectionDegrees,WindSpeedMPH,WindSpeedGustMPH,Humidity,HourlyPrecipIn,Conditions,Clouds,dailyrainin,SolarRadiationWatts/m^2,SoftwareType,DateUTC
2013-03-05 00:03:00,48.3,46.1,30.11,SE,125,4.0,4.0,92,0.00,,,0.00,0,Wunderground v.1.15,2013-03-05 08:03:00,
2013-03-05 00:08:00,48.3,46.1,30.11,ESE,115,4.0,5.0,92,0.00,,,0.00,0,Wunderground v.1.15,2013-03-05 08:08:00,
2013-03-05 00:13:00,48.4,46.2,30.10,ESE,104,4.0,5.0,92,0.00,,,0.00,0,Wunderground v.1.15,2013-03-05 08:13:00,
2013-03-05 00:18:00,48.5,46.3,30.11,ESE,103,4.0,5.0,92,0.00,,,0.00,0,Wunderground v.1.15,2013-03-05 08:18:00,
2013-03-05 00:24:00,48.7,46.5,30.11,SE,135,4.0,5.0,92,0.00,,,0.00,0,Wunderground v.1.15,2013-03-05 08:24:00,
2013-03-05 00:29:00,49.0,46.8,30.11,SE,130,4.0,5.0,92,0.00,,,0.00,0,Wunderground v.1.15,2013-03-05 08:29:00,
2013-03-05 00:35:00,49.0,46.5,30.12,ENE,78,3.0,4.0,91,0.00,,,0.00,0,Wunderground v.1.15,2013-03-05 08:35:00,
2013-03-05 00:41:00,49.1,46.6,30.11,ENE,74,2.0,4.0,91,0.00,,,0.00,0,Wunderground v.1.15,2013-03-05 08:41:00,
2013-03-05 00:47:00,48.9,46.1,30.12,ESE,121,2.0,4.0,90,0.00,,,0.00,0,Wunderground v.1.15,2013-03-05 08:47:00,
2013-03-05 00:52:00,48.6,45.8,30.11,East,92,2.0,2.0,90,0.00,,,0.00,0,Wunderground v.1.15,2013-03-05 08:52:00,
2013-03-05 00:57:00,48.7,46.2,30.11,ESE,110,2.0,2.0,91,0.00,,,0.00,0,Wunderground v.1.15,2013-03-05 08:57:00,
2013-03-05 01:02:00,48.4,45.6,30.11,SE,127,3.0,4.0,90,0.00,,,0.00,0,Wunderground v.1.15,2013-03-05 09:02:00,
2013-03-05 01:08:00,48.1,45.3,30.11,ESE,108,3.0,4.0,90,0.00,,,0.00,0,Wunderground v.1.15,2013-03-05 09:08:00,
2013-03-05 01:14:00,48.0,45.5,30.11,ESE,120,3.0,3.0,91,0.00,,,0.00,0,Wunderground v.1.15,2013-03-05 09:14:00,
2013-03-05 01:19:00,48.0,45.5,30.11,East,96,3.0,5.0,91,0.00,,,0.00,0,Wunderground v.1.15,2013-03-05 09:19:00,
2013-03-05 01:25:00,48.0,45.5,30.11,ESE,102,4.0,5.0,91,0.00,,,0.00,0,Wunderground v.1.15,2013-03-05 09:25:00,
2013-03-05 01:31:00,47.7,45.2,30.10,ESE,123,4.0,5.0,91,0.00,,,0.00,0,Wunderground v.1.15,2013-03-05 09:31:00,
2013-03-05 01:36:00,47.8,45.3,30.10,ESE,108,4.0,7.0,91,0.00,,,0.00,0,Wunderground v.1.15,2013-03-05 09:36:00,
2013-03-05 01:41:00,47.9,45.4,30.10,ESE,104,2.0,7.0,91,0.00,,,0.00,0,Wunderground v.1.15,2013-03-05 09:41:00,
2013-03-05 01:46:00,47.4,44.9,30.10,ESE,104,0.0,2.0,91,0.00,,,0.00,0,Wunderground v.1.15,2013-03-05 09:46:00,
2013-03-05 01:52:00,47.4,44.9,30.10,ESE,119,0.0,2.0,91,0.00,,,0.00,0,Wunderground v.1.15,2013-03-05 09:52:00,
2013-03-05 01:58:00,47.1,44.6,30.09,ESE,120,2.0,3.0,91,0.00,,,0.00,0,Wunderground v.1.15,2013-03-05 09:58:00,
2013-03-05 02:03:00,46.9,44.4,30.09,ESE,121,2.0,4.0,91,0.00,,,0.00,0,Wunderground v.1.15,2013-03-05 10:03:00,
2013-03-05 02:09:00,47.0,44.8,30.09,ESE,107,3.0,4.0,92,0.00,,,0.00,0,Wunderground v.1.15,2013-03-05 10:09:00,
2013-03-05 02:14:00,47.0,44.5,30.09,ESE,102,3.0,3.0,91,0.00,,,0.00,0,Wunderground v.1.15,2013-03-05 10:14:00,
2013-03-05 02:21:00,46.6,44.1,30.09,ESE,120,2.0,3.0,91,0.00,,,0.00,0,Wunderground v.1.15,2013-03-05 10:21:00,
2013-03-05 02:27:00,46.4,43.9,30.09,ESE,120,2.0,2.0,91,0.00,,,0.00,0,Wunderground v.1.15,2013-03-05 10:27:00,
2013-03-05 02:33:00,46.4,44.2,30.10,ESE,116,1.0,1.0,92,0.00,,,0.00,0,Wunderground v.1.15,2013-03-05 10:33:00,
2013-03-05 02:38:00,46.2,44.0,30.09,ESE,120,1.0,3.0,92,0.00,,,0.00,0,Wunderground v.1.15,2013-03-05 10:38:00,
2013-03-05 02:44:00,46.3,44.1,30.10,ESE,119,2.0,4.0,92,0.00,,,0.00,0,Wunderground v.1.15,2013-03-05 10:44:00,
2013-03-05 02:50:00,46.5,44.3,30.10,ESE,123,2.0,4.0,92,0.00,,,0.00,0,Wunderground v.1.15,2013-03-05 10:50:00,
2013-03-05 02:56:00,46.7,44.5,30.09,SSE,151,2.0,3.0,92,0.00,,,0.00,0,Wunderground v.1.15,2013-03-05 10:56:00,
2013-03-05 03:01:00,46.9,44.7,30.10,ESE,123,2.0,3.0,92,0.00,,,0.00,0,Wunderground v.1.15,2013-03-05 11:01:00,
2013-03-05 03:07:00,47.3,45.1,30.10,ESE,114,2.0,3.0,92,0.00,,,0.00,0,Wunderground v.1.15,2013-03-05 11:07:00,
2013-03-05 03:12:00,47.5,45.3,30.10,ESE,113,1.0,1.0,92,0.00,,,0.00,0,Wunderground v.1.15,2013-03-05 11:12:00,
2013-03-05 03:18:00,47.6,45.4,30.10,ESE,115,1.0,2.0,92,0.00,,,0.00,0,Wunderground v.1.15,2013-03-05 11:18:00,
2013-03-05 03:23:00,47.6,45.4,30.09,ESE,119,2.0,2.0,92,0.00,,,0.00,0,Wunderground v.1.15,2013-03-05 11:23:00,
2013-03-05 03:29:00,47.7,45.2,30.10,ESE,109,2.0,3.0,91,0.00,,,0.00,0,Wunderground v.1.15,2013-03-05 11:29:00,
2013-03-05 03:35:00,47.9,45.4,30.10,SE,135,2.0,2.0,91,0.00,,,0.00,0,Wunderground v.1.15,2013-03-05 11:35:00,
2013-03-05 03:40:00,48.2,45.7,30.11,ESE,112,1.0,2.0,91,0.00,,,0.00,0,Wunderground v.1.15,2013-03-05 11:40:00,
2013-03-05 03:46:00,48.5,46.0,30.10,ESE,112,0.0,1.0,91,0.00,,,0.00,0,Wunderground v.1.15,2013-03-05 11:46:00,
2013-03-05 03:52:00,48.4,45.9,30.11,SE,136,1.0,1.0,91,0.00,,,0.00,0,Wunderground v.1.15,2013-03-05 11:52:00,
2013-03-05 03:57:00,48.6,46.1,30.11,SE,136,0.0,1.0,91,0.00,,,0.00,0,Wunderground v.1.15,2013-03-05 11:57:00,
2013-03-05 04:03:00,48.7,46.2,30.10,SE,130,1.0,2.0,91,0.00,,,0.00,0,Wunderground v.1.15,2013-03-05 12:03:00,
2013-03-05 04:08:00,48.7,46.2,30.10,ESE,120,2.0,2.0,91,0.00,,,0.00,0,Wunderground v.1.15,2013-03-05 12:08:00,
2013-03-05 04:14:00,48.9,46.7,30.10,ESE,105,1.0,2.0,92,0.00,,,0.00,0,Wunderground v.1.15,2013-03-05 12:14:00,
2013-03-05 04:19:00,49.4,46.9,30.10,ESE,105,0.0,2.0,91,0.00,,,0.00,0,Wunderground v.1.15,2013-03-05 12:19:00,
2013-03-05 04:25:00,49.7,47.2,30.10,ESE,105,0.0,0.0,91,0.00,,,0.00,0,Wunderground v.1.15,2013-03-05 12:25:00,
2013-03-05 04:30:00,50.0,47.2,30.10,ESE,105,0.0,0.0,90,0.00,,,0.00,0,Wunderground v.1.15,2013-03-05 12:30:00,
2013-03-05 04:36:00,49.9,47.1,30.10,SE,125,0.0,2.0,90,0.00,,,0.00,0,Wunderground v.1.15,2013-03-05 12:36:00,
2013-03-05 04:41:00,49.6,47.1,30.10,ESE,121,1.0,2.0,91,0.00,,,0.00,0,Wunderground v.1.15,2013-03-05 12:41:00,
2013-03-05 04:47:00,49.9,47.4,30.10,ESE,121,2.0,2.0,91,0.00,,,0.00,0,Wunderground v.1.15,2013-03-05 12:47:00,
2013-03-05 04:52:00,50.1,47.6,30.10,ESE,121,1.0,1.0,91,0.00,,,0.00,0,Wunderground v.1.15,2013-03-05 12:52:00,
2013-03-05 04:57:00,50.2,47.7,30.10,ESE,121,1.0,1.0,91,0.00,,,0.00,0,Wunderground v.1.15,2013-03-05 12:57:00,
2013-03-05 05:03:00,50.3,47.8,30.10,ESE,121,0.0,0.0,91,0.00,,,0.00,0,Wunderground v.1.15,2013-03-05 13:03:00,
2013-03-05 05:08:00,50.3,47.8,30.10,ESE,121,0.0,0.0,91,0.00,,,0.00,0,Wunderground v.1.15,2013-03-05 13:08:00,
2013-03-05 05:14:00,50.4,47.9,30.10,ESE,121,0.0,0.0,91,0.00,,,0.00,0,Wunderground v.1.15,2013-03-05 13:14:00,
2013-03-05 05:20:00,50.6,48.4,30.10,ESE,121,0.0,1.0,92,0.00,,,0.00,0,Wunderground v.1.15,2013-03-05 13:20:00,
2013-03-05 05:25:00,50.8,48.6,30.11,ESE,121,0.0,0.0,92,0.00,,,0.00,0,Wunderground v.1.15,2013-03-05 13:25:00,
2013-03-05 05:31:00,50.9,48.7,30.10,ESE,121,0.0,0.0,92,0.00,,,0.00,0,Wunderground v.1.15,2013-03-05 13:31:00,
2013-03-05 05:37:00,51.1,48.6,30.10,ESE,121,0.0,0.0,91,0.00,,,0.00,0,Wunderground v.1.15,2013-03-05 13:37:00,
2013-03-05 05:42:00,50.9,48.7,30.11,ESE,121,0.0,1.0,92,0.00,,,0.00,0,Wunderground v.1.15,2013-03-05 13:42:00,
2013-03-05 05:48:00,51.0,48.8,30.11,ESE,121,0.0,1.0,92,0.00,,,0.00,0,Wunderground v.1.15,2013-03-05 13:48:00,
2013-03-05 05:53:00,51.1,48.9,30.11,ESE,121,0.0,0.0,92,0.00,,,0.00,0,Wunderground v.1.15,2013-03-05 13:53:00,
2013-03-05 05:59:00,51.4,49.2,30.11,ESE,121,0.0,0.0,92,0.00,,,0.00,0,Wunderground v.1.15,2013-03-05 13:59:00,
2013-03-05 06:04:00,51.7,49.5,30.12,ESE,121,0.0,0.0,92,0.00,,,0.00,0,Wunderground v.1.15,2013-03-05 14:04:00,
2013-03-05 06:10:00,51.8,49.5,30.11,ESE,121,0.0,0.0,92,0.00,,,0.00,0,Wunderground v.1.15,2013-03-05 14:10:00,
2013-03-05 06:16:00,51.7,49.5,30.12,ESE,121,0.0,1.0,92,0.00,,,0.00,0,Wunderground v.1.15,2013-03-05 14:16:00,
2013-03-05 06:21:00,51.7,49.5,30.11,ESE,121,0.0,1.0,92,0.00,,,0.00,0,Wunderground v.1.15,2013-03-05 14:21:00,
2013-03-05 06:27:00,51.7,49.7,30.11,ESE,121,1.0,1.0,93,0.00,,,0.00,0,Wunderground v.1.15,2013-03-05 14:27:00,
2013-03-05 06:32:00,51.9,49.9,30.11,ESE,121,0.0,0.0,93,0.00,,,0.00,0,Wunderground v.1.15,2013-03-05 14:32:00,
2013-03-05 06:38:00,52.0,50.0,30.11,ESE,121,0.0,1.0,93,0.00,,,0.00,5,Wunderground v.1.15,2013-03-05 14:38:00,
2013-03-05 06:43:00,52.1,50.1,30.11,ESE,121,0.0,0.0,93,0.00,,,0.00,9,Wunderground v.1.15,2013-03-05 14:43:00,
2013-03-05 06:49:00,52.3,50.3,30.11,ESE,121,0.0,0.0,93,0.00,,,0.00,11,Wunderground v.1.15,2013-03-05 14:49:00,
2013-03-05 06:55:00,52.3,50.0,30.11,ESE,121,0.0,2.0,92,0.00,,,0.00,16,Wunderground v.1.15,2013-03-05 14:55:00,
2013-03-05 07:00:00,52.3,50.3,30.12,ESE,121,1.0,3.0,93,0.00,,,0.00,19,Wunderground v.1.15,2013-03-05 15:00:00,
2013-03-05 07:06:00,52.4,50.4,30.11,ESE,121,1.0,2.0,93,0.00,,,0.00,21,Wunderground v.1.15,2013-03-05 15:06:00,
2013-03-05 07:11:00,52.5,50.5,30.11,ESE,121,1.0,2.0,93,0.00,,,0.00,26,Wunderground v.1.15,2013-03-05 15:11:00,
2013-03-05 07:16:00,52.6,50.6,30.12,ESE,121,0.0,2.0,93,0.00,,,0.00,33,Wunderground v.1.15,2013-03-05 15:16:00,
2013-03-05 07:22:00,52.7,50.7,30.12,ESE,121,0.0,2.0,93,0.00,,,0.00,35,Wunderground v.1.15,2013-03-05 15:22:00,
2013-03-05 07:27:00,52.8,50.5,30.11,East,94,1.0,2.0,92,0.00,,,0.00,47,Wunderground v.1.15,2013-03-05 15:27:00,
2013-03-05 07:33:00,53.1,50.8,30.11,East,87,1.0,1.0,92,0.00,,,0.00,51,Wunderground v.1.15,2013-03-05 15:33:00,
2013-03-05 07:38:00,53.2,50.6,30.10,ESE,105,1.0,4.0,91,0.00,,,0.00,63,Wunderground v.1.15,2013-03-05 15:38:00,
2013-03-05 07:44:00,53.3,50.4,30.10,ESE,110,3.0,4.0,90,0.00,,,0.00,83,Wunderground v.1.15,2013-03-05 15:44:00,
2013-03-05 07:49:00,53.4,50.5,30.10,East,92,3.0,7.0,90,0.00,,,0.00,79,Wunderground v.1.15,2013-03-05 15:49:00,
2013-03-05 07:55:00,53.5,50.3,30.11,East,93,3.0,3.0,89,0.00,,,0.00,74,Wunderground v.1.15,2013-03-05 15:55:00,
2013-03-05 08:01:00,53.5,50.0,30.11,NNE,26,2.0,3.0,88,0.00,,,0.00,79,Wunderground v.1.15,2013-03-05 16:01:00,
2013-03-05 08:06:00,53.5,50.0,30.11,ENE,71,2.0,4.0,88,0.00,,,0.00,83,Wunderground v.1.15,2013-03-05 16:06:00,
2013-03-05 08:12:00,53.6,50.1,30.11,ENE,69,2.0,2.0,88,0.00,,,0.00,90,Wunderground v.1.15,2013-03-05 16:12:00,
2013-03-05 08:17:00,53.8,50.3,30.11,ESE,102,2.0,3.0,88,0.00,,,0.00,113,Wunderground v.1.15,2013-03-05 16:17:00,
2013-03-05 08:23:00,53.9,50.4,30.11,ENE,74,2.0,2.0,88,0.00,,,0.00,118,Wunderground v.1.15,2013-03-05 16:23:00,
2013-03-05 08:29:00,54.2,50.4,30.11,East,83,1.0,2.0,87,0.00,,,0.00,128,Wunderground v.1.15,2013-03-05 16:29:00,
2013-03-05 08:34:00,54.5,50.7,30.11,ENE,69,1.0,6.0,87,0.00,,,0.00,183,Wunderground v.1.15,2013-03-05 16:34:00,
2013-03-05 08:40:00,54.8,51.0,30.11,East,90,2.0,6.0,87,0.00,,,0.00,192,Wunderground v.1.15,2013-03-05 16:40:00,
2013-03-05 08:46:00,54.8,50.7,30.11,ESE,113,3.0,5.0,86,0.00,,,0.00,197,Wunderground v.1.15,2013-03-05 16:46:00,
2013-03-05 08:52:00,54.9,50.5,30.11,East,87,4.0,5.0,85,0.00,,,0.00,202,Wunderground v.1.15,2013-03-05 16:52:00,
2013-03-05 08:57:00,54.7,50.6,30.11,ESE,117,3.0,5.0,86,0.00,,,0.00,190,Wunderground v.1.15,2013-03-05 16:57:00,
2013-03-05 09:03:00,55.0,50.9,30.11,ESE,102,2.0,2.0,86,0.00,,,0.00,202,Wunderground v.1.15,2013-03-05 17:03:00,
2013-03-05 09:08:00,55.1,50.7,30.11,ENE,75,1.0,3.0,85,0.00,,,0.00,195,Wunderground v.1.15,2013-03-05 17:08:00,
2013-03-05 09:14:00,55.0,50.6,30.11,ENE,60,3.0,3.0,85,0.00,,,0.00,209,Wunderground v.1.15,2013-03-05 17:14:00,
2013-03-05 09:19:00,55.1,50.4,30.11,ENE,61,2.0,3.0,84,0.00,,,0.00,211,Wunderground v.1.15,2013-03-05 17:19:00,
2013-03-05 09:26:00,55.1,50.7,30.12,East,84,1.0,3.0,85,0.00,,,0.00,209,Wunderground v.1.15,2013-03-05 17:26:00,
2013-03-05 09:31:00,55.4,50.6,30.12,NNW,329,1.0,1.0,84,0.00,,,0.00,202,Wunderground v.1.15,2013-03-05 17:31:00,
2013-03-05 09:37:00,55.8,51.0,30.12,SSW,211,1.0,2.0,84,0.00,,,0.00,197,Wunderground v.1.15,2013-03-05 17:37:00,
2013-03-05 09:42:00,56.0,51.2,30.12,SSW,211,0.0,0.0,84,0.00,,,0.00,204,Wunderground v.1.15,2013-03-05 17:42:00,
2013-03-05 09:48:00,55.7,50.6,30.12,ESE,102,0.0,1.0,83,0.00,,,0.00,225,Wunderground v.1.15,2013-03-05 17:48:00,
2013-03-05 09:54:00,56.1,51.0,30.12,South,173,0.0,1.0,83,0.00,,,0.00,213,Wunderground v.1.15,2013-03-05 17:54:00,
2013-03-05 09:59:00,56.8,51.4,30.12,SSW,205,1.0,3.0,82,0.00,,,0.00,229,Wunderground v.1.15,2013-03-05 17:59:00,
2013-03-05 10:05:00,56.6,50.8,30.12,WNW,283,2.0,2.0,81,0.00,,,0.00,221,Wunderground v.1.15,2013-03-05 18:05:00,
2013-03-05 10:10:00,56.7,51.3,30.12,SE,140,1.0,2.0,82,0.00,,,0.00,220,Wunderground v.1.15,2013-03-05 18:10:00,
2013-03-05 10:16:00,57.2,51.4,30.12,SW,232,1.0,3.0,81,0.00,,,0.00,213,Wunderground v.1.15,2013-03-05 18:16:00,
2013-03-05 10:22:00,57.2,51.1,30.12,SW,229,3.0,3.0,80,0.00,,,0.00,225,Wunderground v.1.15,2013-03-05 18:22:00,
2013-03-05 10:27:00,57.0,50.9,30.12,SSE,166,3.0,4.0,80,0.00,,,0.00,214,Wunderground v.1.15,2013-03-05 18:27:00,
2013-03-05 10:33:00,57.1,51.3,30.12,SW,227,2.0,3.0,81,0.00,,,0.00,197,Wunderground v.1.15,2013-03-05 18:33:00,
2013-03-05 10:38:00,56.8,51.0,30.12,WNW,298,3.0,5.0,81,0.00,,,0.00,179,Wunderground v.1.15,2013-03-05 18:38:00,
2013-03-05 10:44:00,56.8,51.0,30.12,WSW,238,3.0,5.0,81,0.00,,,0.00,169,Wunderground v.1.15,2013-03-05 18:44:00,
2013-03-05 10:49:00,56.9,51.1,30.12,SSW,196,3.0,7.0,81,0.00,,,0.00,197,Wunderground v.1.15,2013-03-05 18:49:00,
2013-03-05 10:55:00,56.9,51.1,30.12,WSW,256,4.0,5.0,81,0.00,,,0.00,221,Wunderground v.1.15,2013-03-05 18:55:00,
2013-03-05 11:02:00,57.2,51.1,30.12,WSW,244,3.0,3.0,80,0.00,,,0.00,172,Wunderground v.1.15,2013-03-05 19:02:00,
2013-03-05 11:07:00,56.9,51.1,30.12,WNW,284,3.0,5.0,81,0.00,,,0.00,172,Wunderground v.1.15,2013-03-05 19:07:00,
2013-03-05 11:12:00,56.9,51.1,30.12,SW,222,4.0,4.0,81,0.00,,,0.00,206,Wunderground v.1.15,2013-03-05 19:12:00,
2013-03-05 11:18:00,57.3,51.2,30.12,South,188,4.0,7.0,80,0.00,,,0.00,234,Wunderground v.1.15,2013-03-05 19:18:00,
2013-03-05 11:23:00,57.4,51.3,30.12,West,273,5.0,5.0,80,0.00,,,0.00,223,Wunderground v.1.15,2013-03-05 19:23:00,
2013-03-05 11:29:00,57.7,51.6,30.12,SSW,207,4.0,5.0,80,0.00,,,0.00,211,Wunderground v.1.15,2013-03-05 19:29:00,
2013-03-05 11:35:00,57.5,51.4,30.11,West,276,3.0,4.0,80,0.00,,,0.00,190,Wunderground v.1.15,2013-03-05 19:35:00,
2013-03-05 11:41:00,57.3,51.2,30.11,SW,221,3.0,6.0,80,0.00,,,0.00,206,Wunderground v.1.15,2013-03-05 19:41:00,
2013-03-05 11:46:00,57.8,51.7,30.11,WNW,296,3.0,4.0,80,0.00,,,0.00,190,Wunderground v.1.15,2013-03-05 19:46:00,
2013-03-05 11:52:00,57.7,51.2,30.11,WNW,286,3.0,3.0,79,0.00,,,0.00,179,Wunderground v.1.15,2013-03-05 19:52:00,
2013-03-05 11:57:00,57.6,51.1,30.11,WSW,246,3.0,5.0,79,0.00,,,0.00,158,Wunderground v.1.15,2013-03-05 19:57:00,
2013-03-05 12:03:00,57.6,51.5,30.11,South,190,3.0,5.0,80,0.00,,,0.00,153,Wunderground v.1.15,2013-03-05 20:03:00,
2013-03-05 12:09:00,57.5,51.4,30.10,West,269,3.0,5.0,80,0.00,,,0.00,195,Wunderground v.1.15,2013-03-05 20:09:00,
2013-03-05 12:14:00,57.5,51.4,30.10,WNW,286,3.0,4.0,80,0.00,,,0.00,192,Wunderground v.1.15,2013-03-05 20:14:00,
2013-03-05 12:20:00,57.7,51.6,30.10,SW,225,3.0,8.0,80,0.00,,,0.00,197,Wunderground v.1.15,2013-03-05 20:20:00,
2013-03-05 12:25:00,57.9,51.8,30.09,SW,229,3.0,4.0,80,0.00,,,0.00,234,Wunderground v.1.15,2013-03-05 20:25:00,
2013-03-05 12:31:00,58.2,51.7,30.09,NW,311,3.0,4.0,79,0.00,,,0.00,211,Wunderground v.1.15,2013-03-05 20:31:00,
2013-03-05 12:37:00,58.0,51.9,30.09,WNW,288,3.0,5.0,80,0.00,,,0.00,209,Wunderground v.1.15,2013-03-05 20:37:00,
2013-03-05 12:42:00,58.2,51.7,30.09,SSW,204,3.0,7.0,79,0.00,,,0.00,213,Wunderground v.1.15,2013-03-05 20:42:00,
2013-03-05 12:48:00,58.1,51.6,30.09,SSW,208,4.0,7.0,79,0.00,,,0.00,239,Wunderground v.1.15,2013-03-05 20:48:00,
2013-03-05 12:54:00,58.4,51.9,30.08,WSW,237,4.0,4.0,79,0.00,,,0.00,244,Wunderground v.1.15,2013-03-05 20:54:00,
2013-03-05 12:59:00,58.2,51.7,30.08,SSW,207,3.0,6.0,79,0.00,,,0.00,243,Wunderground v.1.15,2013-03-05 20:59:00,
2013-03-05 13:05:00,58.7,51.9,30.08,NW,311,3.0,4.0,78,0.00,,,0.00,281,Wunderground v.1.15,2013-03-05 21:05:00,
2013-03-05 13:11:00,58.7,51.5,30.08,NW,306,3.0,6.0,77,0.00,,,0.00,343,Wunderground v.1.15,2013-03-05 21:11:00,
2013-03-05 13:16:00,59.0,52.1,30.07,NW,317,3.0,6.0,78,0.00,,,0.00,383,Wunderground v.1.15,2013-03-05 21:16:00,
2013-03-05 13:22:00,59.1,51.5,30.07,NNW,327,4.0,4.0,76,0.00,,,0.00,448,Wunderground v.1.15,2013-03-05 21:22:00,
2013-03-05 13:27:00,60.1,52.1,30.07,SW,231,3.0,9.0,75,0.00,,,0.00,399,Wunderground v.1.15,2013-03-05 21:27:00,
2013-03-05 13:33:00,60.2,52.6,30.07,NW,317,3.0,6.0,76,0.00,,,0.00,826,Wunderground v.1.15,2013-03-05 21:33:00,
2013-03-05 13:39:00,60.4,52.1,30.07,SSW,198,4.0,7.0,74,0.00,,,0.00,418,Wunderground v.1.15,2013-03-05 21:39:00,
2013-03-05 13:44:00,61.1,52.0,30.06,ESE,119,5.0,6.0,72,0.00,,,0.00,454,Wunderground v.1.15,2013-03-05 21:44:00,
2013-03-05 13:50:00,61.1,52.4,30.06,SSE,161,3.0,6.0,73,0.00,,,0.00,318,Wunderground v.1.15,2013-03-05 21:50:00,
2013-03-05 13:56:00,60.9,52.9,30.06,NW,315,3.0,3.0,75,0.00,,,0.00,788,Wunderground v.1.15,2013-03-05 21:56:00,
2013-03-05 14:01:00,61.5,52.8,30.06,SSW,200,3.0,8.0,73,0.00,,,0.00,705,Wunderground v.1.15,2013-03-05 22:01:00,
2013-03-05 14:07:00,62.0,52.5,30.06,SW,235,5.0,8.0,71,0.00,,,0.00,701,Wunderground v.1.15,2013-03-05 22:07:00,
2013-03-05 14:12:00,62.1,52.2,30.06,SW,228,6.0,7.0,70,0.00,,,0.00,626,Wunderground v.1.15,2013-03-05 22:12:00,
2013-03-05 14:18:00,62.3,52.0,30.05,SW,227,5.0,8.0,69,0.00,,,0.00,485,Wunderground v.1.15,2013-03-05 22:18:00,
2013-03-05 14:24:00,62.1,52.2,30.05,South,172,4.0,8.0,70,0.00,,,0.00,582,Wunderground v.1.15,2013-03-05 22:24:00,
2013-03-05 14:30:00,61.9,52.4,30.05,South,185,3.0,8.0,71,0.00,,,0.00,561,Wunderground v.1.15,2013-03-05 22:30:00,
2013-03-05 14:35:00,62.2,51.9,30.05,SE,127,3.0,7.0,69,0.00,,,0.00,557,Wunderground v.1.15,2013-03-05 22:35:00,
2013-03-05 14:41:00,62.0,51.7,30.05,SSW,200,4.0,7.0,69,0.00,,,0.00,538,Wunderground v.1.15,2013-03-05 22:41:00,
2013-03-05 14:47:00,62.2,52.7,30.05,SSW,198,3.0,4.0,71,0.00,,,0.00,536,Wunderground v.1.15,2013-03-05 22:47:00,
2013-03-05 14:52:00,62.2,51.9,30.04,SSW,201,3.0,3.0,69,0.00,,,0.00,513,Wunderground v.1.15,2013-03-05 22:52:00,
2013-03-05 14:57:00,62.6,51.9,30.05,SSW,209,3.0,7.0,68,0.00,,,0.00,512,Wunderground v.1.15,2013-03-05 22:57:00,
2013-03-05 15:02:00,62.3,51.6,30.05,SW,219,5.0,6.0,68,0.00,,,0.00,313,Wunderground v.1.15,2013-03-05 23:02:00,
2013-03-05 15:08:00,61.8,51.5,30.05,SSW,211,5.0,6.0,69,0.00,,,0.00,397,Wunderground v.1.15,2013-03-05 23:08:00,
2013-03-05 15:14:00,61.6,51.3,30.05,WSW,244,5.0,7.0,69,0.00,,,0.00,160,Wunderground v.1.15,2013-03-05 23:14:00,
2013-03-05 15:19:00,61.9,51.6,30.04,SSE,161,4.0,9.0,69,0.00,,,0.00,459,Wunderground v.1.15,2013-03-05 23:19:00,
2013-03-05 15:25:00,62.5,51.4,30.04,South,176,4.0,8.0,67,0.00,,,0.00,439,Wunderground v.1.15,2013-03-05 23:25:00,
2013-03-05 15:30:00,62.3,51.2,30.04,WSW,252,6.0,8.0,67,0.00,,,0.00,432,Wunderground v.1.15,2013-03-05 23:30:00,
2013-03-05 15:36:00,62.5,51.0,30.04,WSW,252,5.0,10.0,66,0.00,,,0.00,397,Wunderground v.1.15,2013-03-05 23:36:00,
2013-03-05 15:42:00,62.1,51.0,30.04,SW,229,6.0,6.0,67,0.00,,,0.00,364,Wunderground v.1.15,2013-03-05 23:42:00,
2013-03-05 15:47:00,61.8,50.7,30.04,SW,228,7.0,11.0,67,0.00,,,0.00,408,Wunderground v.1.15,2013-03-05 23:47:00,
2013-03-05 16:36:00,57.6,50.4,30.05,SW,233,6.0,12.0,77,0.00,,,0.00,62,Wunderground v.1.15,2013-03-06 00:36:00,
2013-03-05 16:43:00,57.4,50.2,30.05,WSW,254,6.0,6.0,77,0.00,,,0.00,46,Wunderground v.1.15,2013-03-06 00:43:00,
2013-03-05 16:49:00,57.2,50.1,30.06,WSW,255,6.0,10.0,77,0.00,,,0.00,39,Wunderground v.1.15,2013-03-06 00:49:00,
2013-03-05 16:54:00,56.9,50.1,30.05,WSW,238,7.0,11.0,78,0.00,,,0.00,26,Wunderground v.1.15,2013-03-06 00:54:00,
2013-03-05 17:00:00,56.6,49.8,30.05,WSW,251,6.0,11.0,78,0.00,,,0.00,21,Wunderground v.1.15,2013-03-06 01:00:00,
2013-03-05 17:06:00,56.4,50.0,30.05,WSW,254,4.0,6.0,79,0.00,,,0.00,19,Wunderground v.1.15,2013-03-06 01:06:00,
2013-03-05 17:12:00,56.4,50.0,30.06,SSW,212,4.0,5.0,79,0.00,,,0.00,12,Wunderground v.1.15,2013-03-06 01:12:00,
2013-03-05 17:17:00,56.2,49.8,30.06,WSW,238,5.0,8.0,79,0.00,,,0.00,9,Wunderground v.1.15,2013-03-06 01:17:00,
2013-03-05 17:23:00,56.1,49.7,30.06,SW,224,5.0,5.0,79,0.00,,,0.00,7,Wunderground v.1.15,2013-03-06 01:23:00,
2013-03-05 17:29:00,56.0,49.6,30.06,WSW,249,5.0,7.0,79,0.00,,,0.00,5,Wunderground v.1.15,2013-03-06 01:29:00,
2013-03-05 17:35:00,55.9,49.8,30.06,WSW,258,5.0,5.0,80,0.00,,,0.00,0,Wunderground v.1.15,2013-03-06 01:35:00,
2013-03-05 17:41:00,55.7,49.6,30.07,WSW,256,4.0,6.0,80,0.00,,,0.00,0,Wunderground v.1.15,2013-03-06 01:41:00,
2013-03-05 17:47:00,55.7,49.6,30.07,SW,215,3.0,4.0,80,0.00,,,0.00,0,Wunderground v.1.15,2013-03-06 01:47:00,
2013-03-05 17:52:00,55.6,49.5,30.07,SSW,211,4.0,4.0,80,0.00,,,0.00,0,Wunderground v.1.15,2013-03-06 01:52:00,
2013-03-05 17:57:00,55.5,49.4,30.07,SW,220,4.0,4.0,80,0.00,,,0.00,0,Wunderground v.1.15,2013-03-06 01:57:00,
2013-03-05 18:03:00,55.5,49.4,30.07,SSW,209,3.0,5.0,80,0.00,,,0.00,0,Wunderground v.1.15,2013-03-06 02:03:00,
2013-03-05 18:09:00,55.4,49.3,30.07,West,271,3.0,6.0,80,0.00,,,0.00,0,Wunderground v.1.15,2013-03-06 02:09:00,
2013-03-05 18:14:00,55.4,49.3,30.07,SW,227,3.0,3.0,80,0.00,,,0.00,0,Wunderground v.1.15,2013-03-06 02:14:00,
2013-03-05 18:20:00,55.3,49.2,30.07,WSW,248,3.0,4.0,80,0.00,,,0.00,0,Wunderground v.1.15,2013-03-06 02:20:00,
2013-03-05 18:26:00,55.1,49.4,30.08,WSW,244,3.0,5.0,81,0.00,,,0.00,0,Wunderground v.1.15,2013-03-06 02:26:00,
2013-03-05 18:32:00,55.1,49.4,30.08,West,260,3.0,3.0,81,0.00,,,0.00,0,Wunderground v.1.15,2013-03-06 02:32:00,
2013-03-05 18:38:00,55.1,49.4,30.08,SW,218,2.0,4.0,81,0.00,,,0.00,0,Wunderground v.1.15,2013-03-06 02:38:00,
2013-03-05 18:44:00,55.2,49.5,30.08,SSW,208,2.0,5.0,81,0.00,,,0.00,0,Wunderground v.1.15,2013-03-06 02:44:00,
2013-03-05 18:49:00,55.3,49.2,30.08,WSW,244,2.0,5.0,80,0.00,,,0.00,0,Wunderground v.1.15,2013-03-06 02:49:00,
2013-03-05 18:54:00,55.2,49.1,30.08,West,259,2.0,3.0,80,0.00,,,0.00,0,Wunderground v.1.15,2013-03-06 02:54:00,
2013-03-05 19:01:00,55.0,48.9,30.08,WSW,248,2.0,4.0,80,0.00,,,0.00,0,Wunderground v.1.15,2013-03-06 03:01:00,
2013-03-05 19:06:00,55.0,49.3,30.09,SW,225,3.0,4.0,81,0.00,,,0.00,0,Wunderground v.1.15,2013-03-06 03:06:00,
2013-03-05 19:12:00,55.0,48.9,30.09,SSW,204,3.0,4.0,80,0.00,,,0.00,0,Wunderground v.1.15,2013-03-06 03:12:00,
2013-03-05 19:18:00,55.1,49.4,30.09,SW,234,3.0,4.0,81,0.00,,,0.00,0,Wunderground v.1.15,2013-03-06 03:18:00,
2013-03-05 19:23:00,55.1,49.4,30.09,SW,217,2.0,2.0,81,0.00,,,0.00,0,Wunderground v.1.15,2013-03-06 03:23:00,
2013-03-05 19:29:00,55.0,48.9,30.09,SW,221,2.0,4.0,80,0.00,,,0.00,0,Wunderground v.1.15,2013-03-06 03:29:00,
2013-03-05 19:35:00,55.0,49.3,30.09,WSW,238,3.0,3.0,81,0.00,,,0.00,0,Wunderground v.1.15,2013-03-06 03:35:00,
2013-03-05 19:41:00,54.9,49.2,30.09,WSW,244,2.0,3.0,81,0.00,,,0.00,0,Wunderground v.1.15,2013-03-06 03:41:00,
2013-03-05 19:46:00,55.0,49.3,30.09,SSW,202,1.0,2.0,81,0.00,,,0.00,0,Wunderground v.1.15,2013-03-06 03:46:00,
2013-03-05 19:52:00,54.9,49.2,30.09,SSW,198,2.0,2.0,81,0.00,,,0.00,0,Wunderground v.1.15,2013-03-06 03:52:00,
2013-03-05 19:58:00,54.8,49.1,30.09,South,191,2.0,3.0,81,0.00,,,0.00,0,Wunderground v.1.15,2013-03-06 03:58:00,
2013-03-05 20:04:00,54.8,49.4,30.09,SSW,197,2.0,3.0,82,0.00,,,0.00,0,Wunderground v.1.15,2013-03-06 04:04:00,
2013-03-05 20:09:00,54.8,49.4,30.09,SSW,208,1.0,3.0,82,0.00,,,0.00,0,Wunderground v.1.15,2013-03-06 04:09:00,
2013-03-05 20:16:00,54.8,49.4,30.09,SW,219,2.0,3.0,82,0.00,,,0.00,0,Wunderground v.1.15,2013-03-06 04:16:00,
2013-03-05 20:22:00,54.7,49.3,30.10,SSE,158,2.0,2.0,82,0.00,,,0.00,0,Wunderground v.1.15,2013-03-06 04:22:00,
2013-03-05 20:28:00,54.6,49.2,30.09,ESE,119,1.0,3.0,82,0.00,,,0.00,0,Wunderground v.1.15,2013-03-06 04:28:00,
2013-03-05 20:33:00,54.5,49.1,30.10,SSW,203,1.0,3.0,82,0.00,,,0.00,0,Wunderground v.1.15,2013-03-06 04:33:00,
2013-03-05 20:39:00,54.5,49.4,30.10,WSW,254,1.0,3.0,83,0.00,,,0.00,0,Wunderground v.1.15,2013-03-06 04:39:00,
2013-03-05 20:45:00,54.5,49.4,30.10,SSE,168,1.0,2.0,83,0.00,,,0.00,0,Wunderground v.1.15,2013-03-06 04:45:00,
2013-03-05 20:51:00,54.4,49.0,30.10,NE,42,2.0,2.0,82,0.00,,,0.00,0,Wunderground v.1.15,2013-03-06 04:51:00,
2013-03-05 20:57:00,54.4,49.0,30.10,SSE,153,1.0,2.0,82,0.00,,,0.00,0,Wunderground v.1.15,2013-03-06 04:57:00,
2013-03-05 21:00:00,54.3,48.9,30.10,West,275,1.0,4.0,82,0.00,,,0.00,0,Wunderground v.1.15,2013-03-06 05:00:00,
2013-03-05 21:02:00,54.3,48.9,30.10,West,276,2.0,3.0,82,0.00,,,0.00,0,Wunderground v.1.15,2013-03-06 05:02:00,
2013-03-05 21:04:00,54.2,48.8,30.11,SW,226,2.0,4.0,82,0.00,,,0.00,0,Wunderground v.1.15,2013-03-06 05:04:00,
2013-03-05 21:05:00,54.3,49.2,30.11,SW,228,2.0,4.0,83,0.00,,,0.00,0,Wunderground v.1.15,2013-03-06 05:05:00,
2013-03-05 21:11:00,54.3,48.9,30.11,West,270,3.0,7.0,82,0.00,,,0.00,0,Wunderground v.1.15,2013-03-06 05:11:00,
2013-03-05 21:17:00,54.2,48.8,30.11,West,275,4.0,4.0,82,0.00,,,0.00,0,Wunderground v.1.15,2013-03-06 05:17:00,
2013-03-05 21:23:00,54.2,48.8,30.11,West,279,3.0,3.0,82,0.00,,,0.00,0,Wunderground v.1.15,2013-03-06 05:23:00,
2013-03-05 21:29:00,54.2,48.8,30.11,SW,231,1.0,3.0,82,0.00,,,0.00,0,Wunderground v.1.15,2013-03-06 05:29:00,
2013-03-05 21:35:00,54.2,48.8,30.12,WSW,247,1.0,2.0,82,0.00,,,0.00,0,Wunderground v.1.15,2013-03-06 05:35:00,
2013-03-05 21:41:00,54.2,48.8,30.12,WNW,302,1.0,4.0,82,0.00,,,0.00,0,Wunderground v.1.15,2013-03-06 05:41:00,
2013-03-05 21:47:00,54.4,49.0,30.12,WSW,240,1.0,2.0,82,0.00,,,0.00,0,Wunderground v.1.15,2013-03-06 05:47:00,
2013-03-05 21:52:00,54.4,48.7,30.12,SW,232,0.0,0.0,81,0.00,,,0.00,0,Wunderground v.1.15,2013-03-06 05:52:00,
2013-03-05 21:58:00,54.3,48.6,30.12,NW,311,0.0,2.0,81,0.00,,,0.00,0,Wunderground v.1.15,2013-03-06 05:58:00,
2013-03-05 22:04:00,54.3,48.6,30.12,West,263,0.0,2.0,81,0.00,,,0.00,0,Wunderground v.1.15,2013-03-06 06:04:00,
2013-03-05 22:10:00,54.3,48.6,30.12,West,261,0.0,2.0,81,0.00,,,0.00,0,Wunderground v.1.15,2013-03-06 06:10:00,
2013-03-05 22:15:00,54.3,48.6,30.12,SE,130,0.0,1.0,81,0.00,,,0.00,0,Wunderground v.1.15,2013-03-06 06:15:00,
2013-03-05 22:21:00,54.2,48.5,30.12,SSW,193,1.0,1.0,81,0.00,,,0.00,0,Wunderground v.1.15,2013-03-06 06:21:00,
2013-03-05 22:27:00,54.2,48.5,30.12,SSE,154,1.0,1.0,81,0.00,,,0.00,0,Wunderground v.1.15,2013-03-06 06:27:00,
2013-03-05 22:33:00,54.1,48.7,30.12,SSE,152,0.0,1.0,82,0.00,,,0.00,0,Wunderground v.1.15,2013-03-06 06:33:00,
2013-03-05 22:39:00,54.1,48.7,30.12,West,271,0.0,3.0,82,0.00,,,0.00,0,Wunderground v.1.15,2013-03-06 06:39:00,
2013-03-05 22:45:00,54.0,48.6,30.12,SW,236,1.0,3.0,82,0.00,,,0.00,0,Wunderground v.1.15,2013-03-06 06:45:00,
2013-03-05 22:51:00,53.9,48.5,30.12,SSW,194,2.0,3.0,82,0.00,,,0.00,0,Wunderground v.1.15,2013-03-06 06:51:00,
2013-03-05 22:56:00,54.0,48.6,30.12,SSW,207,2.0,2.0,82,0.00,,,0.00,0,Wunderground v.1.15,2013-03-06 06:56:00,
2013-03-05 23:02:00,54.0,48.6,30.13,WNW,290,2.0,3.0,82,0.00,,,0.00,0,Wunderground v.1.15,2013-03-06 07:02:00,
2013-03-05 23:07:00,53.9,48.9,30.13,SW,227,3.0,5.0,83,0.00,,,0.00,0,Wunderground v.1.15,2013-03-06 07:07:00,
2013-03-05 23:13:00,53.9,48.9,30.13,SW,234,3.0,5.0,83,0.00,,,0.00,0,Wunderground v.1.15,2013-03-06 07:13:00,
2013-03-05 23:19:00,53.7,48.3,30.14,West,271,3.0,6.0,82,0.00,,,0.00,0,Wunderground v.1.15,2013-03-06 07:19:00,
2013-03-05 23:25:00,53.7,48.3,30.13,SW,221,3.0,4.0,82,0.00,,,0.00,0,Wunderground v.1.15,2013-03-06 07:25:00,
2013-03-05 23:31:00,53.7,48.0,30.13,SSW,210,3.0,4.0,81,0.00,,,0.00,0,Wunderground v.1.15,2013-03-06 07:31:00,
2013-03-05 23:36:00,53.7,48.0,30.13,West,278,1.0,4.0,81,0.00,,,0.00,0,Wunderground v.1.15,2013-03-06 07:36:00,
2013-03-05 23:42:00,53.7,48.0,30.13,West,278,1.0,1.0,81,0.00,,,0.00,0,Wunderground v.1.15,2013-03-06 07:42:00,
2013-03-05 23:47:00,53.7,48.0,30.13,WSW,251,1.0,2.0,81,0.00,,,0.00,0,Wunderground v.1.15,2013-03-06 07:47:00,
2013-03-05 23:53:00,53.6,47.9,30.14,WSW,254,2.0,2.0,81,0.00,,,0.00,0,Wunderground v.1.15,2013-03-06 07:53:00,
2013-03-05 23:59:00,53.6,47.9,30.14,SW,234,2.0,3.0,81,0.00,,,0.00,0,Wunderground v.1.15,2013-03-06 07:59:00,